Aérodrome :
LOGIN :

S'inscrire | Disclaimer

   EN    FR    IT 

 










Légende :    VFR   VFR Marginal   IFR   IFR Intensif   IFR Très Intensif
Visi : 
Plafond : 
>= 8 km
>= 3000ft
5 à 8 km
1000 à 3000 ft
1500m à 5 km
500 à 1000 ft
800 à 1500m
200 à 500 ft
< 800m
< 200 ft
Symboles :   Orages  Brouillard  Fortes neiges  Fortes précipitations  Vent > 20 kt
SIGMETs :   Divers  Orages  Givrage  Turbulence  Onde Orograph.  Cendres Volcan.






- Altitude de l'aérodrome : 1234 ft
- Code IATA : LUX


ELLX - Luxembourg Findel

DERNIER METAR :
  • 252120Z 19008KT 160V220 9999 SCT003 BKN014 09/08 Q1004 NOSIG

METARs EXPIRÉS :
  • 252050Z 19007KT 9999 FEW003 09/08 Q1004 NOSIG
  • 252020Z 19006KT 160V230 9999 FEW003 09/08 Q1004 NOSIG
  • 251950Z 20006KT 9999 FEW003 09/08 Q1004 NOSIG
  • 251920Z 21006KT 9999 FEW003 SCT050 09/08 Q1004 NOSIG
  • 251850Z 19006KT 9999 FEW005 SCT013 BKN090 09/08 Q1004 NOSIG

TAF TAF ELLX
Valide du 25 à 18h jusqu'au 27 à 00h UTC


251700Z 2518/2624 19008KT 9999 BKN040
PROB30
TEMPO 2523/2605 4500 -RA BR BKN012
BECMG 2609/2611 21010KT
PROB30
TEMPO 2614/2624 SHRA SCT020TCU
ATIS : +352 4798 27300
Météo : +352 4798 27010 / 27050



MET'MAP, la Météo Aéronautique d'un coup d'oeil ! - Copyright ORBIFLY Décembre 2007 - Disclaimer

ORBIFLY MET'MAP TEAM :

Programmation & Développement : Alexandra Zaïnal
Sur une idée originale de : Baudouin d'Aumeries
Assistance à la programmation : Marc-Olivier Méhu
Soutien technique & logistique : Manuel Goepfert

Contact : metmap@orbifly.com




SOURCES & CREDITS :

   NOAA